createdAt,value
2022-09-26T00:01:45.814Z,84.67
2022-09-26T00:04:22.907Z,84.75
2022-09-26T00:06:54.780Z,84.64
2022-09-26T00:09:25.910Z,84.66
2022-09-26T00:11:54.355Z,84.54
2022-09-26T00:14:27.787Z,83.84
2022-09-26T00:16:56.023Z,84.66
2022-09-26T00:19:30.169Z,84.81
2022-09-26T00:21:58.305Z,84.01
2022-09-26T00:24:26.309Z,83.84
2022-09-26T00:26:54.282Z,84.41
2022-09-26T00:29:23.205Z,84.46
2022-09-26T00:31:51.133Z,84.60
2022-09-26T00:34:20.609Z,83.95
2022-09-26T00:36:49.746Z,84.79
2022-09-26T00:39:17.909Z,84.32
2022-09-26T00:41:46.279Z,84.25
2022-09-26T00:44:37.238Z,84.22
2022-09-26T00:47:08.717Z,84.09
2022-09-26T00:49:46.130Z,84.04
2022-09-26T00:52:24.760Z,83.84
2022-09-26T00:54:58.039Z,84.34
2022-09-26T00:57:36.423Z,83.79
2022-09-26T01:00:11.675Z,83.49
2022-09-26T01:02:40.546Z,83.33
2022-09-26T01:05:15.485Z,83.49
2022-09-26T01:07:44.012Z,83.47
2022-09-26T01:10:12.784Z,83.26
2022-09-26T01:12:40.808Z,83.59
2022-09-26T01:15:09.769Z,83.60
2022-09-26T01:17:44.011Z,83.17
2022-09-26T01:20:35.971Z,83.50
2022-09-26T01:23:21.776Z,83.13
2022-09-26T01:26:14.067Z,83.29
2022-09-26T01:28:43.895Z,82.79
2022-09-26T01:31:24.203Z,82.85
2022-09-26T01:34:04.315Z,82.91
2022-09-26T01:36:53.980Z,83.08
2022-09-26T01:39:28.962Z,82.72
2022-09-26T01:42:43.981Z,82.44
2022-09-26T01:45:20.125Z,82.83
2022-09-26T01:48:14.235Z,82.31
2022-09-26T01:50:46.222Z,82.49
2022-09-26T01:53:42.838Z,82.31
2022-09-26T01:56:20.855Z,82.40
2022-09-26T01:59:05.344Z,82.34
2022-09-26T02:01:40.940Z,82.32
2022-09-26T02:04:37.639Z,82.16
2022-09-26T02:07:31.705Z,82.06
2022-09-26T02:10:08.752Z,82.56
2022-09-26T02:12:40.288Z,82.75
2022-09-26T02:15:12.275Z,82.24
2022-09-26T02:17:48.357Z,82.24
2022-09-26T02:20:38.856Z,81.79
2022-09-26T02:23:07.883Z,82.71
2022-09-26T02:25:38.416Z,82.55
2022-09-26T02:28:06.493Z,82.30
2022-09-26T02:30:35.916Z,82.48
2022-09-26T02:33:04.069Z,82.26
2022-09-26T02:35:51.594Z,82.65
2022-09-26T02:38:19.564Z,82.36
2022-09-26T02:41:07.116Z,82.40
2022-09-26T02:43:53.138Z,82.35
2022-09-26T02:46:46.568Z,82.43
2022-09-26T02:49:36.570Z,82.78
2022-09-26T02:52:33.420Z,82.52
2022-09-26T02:55:22.018Z,82.55
2022-09-26T02:58:12.441Z,82.21
2022-09-26T03:00:49.351Z,81.55
2022-09-26T03:03:39.246Z,81.87
2022-09-26T03:06:14.229Z,82.23
2022-09-26T03:08:47.691Z,82.31
2022-09-26T03:11:22.437Z,81.41
2022-09-26T03:13:55.357Z,81.85
2022-09-26T03:16:26.523Z,82.25
2022-09-26T03:19:04.222Z,81.81
2022-09-26T03:21:36.192Z,81.53
2022-09-26T03:24:05.481Z,81.50
2022-09-26T03:26:35.567Z,81.76
2022-09-26T03:29:04.520Z,81.32
2022-09-26T03:31:32.585Z,82.27
2022-09-26T03:34:00.764Z,81.45
2022-09-26T03:36:29.405Z,81.26
2022-09-26T03:38:57.415Z,80.88
2022-09-26T03:41:26.563Z,81.43
2022-09-26T03:43:56.926Z,81.47
2022-09-26T03:46:47.997Z,81.50
2022-09-26T03:49:16.028Z,81.24
2022-09-26T03:51:45.126Z,81.34
2022-09-26T03:54:14.156Z,81.14
2022-09-26T03:56:42.412Z,81.50
2022-09-26T03:59:10.403Z,81.02
2022-09-26T04:01:38.605Z,81.14
2022-09-26T04:04:06.545Z,80.71
2022-09-26T04:06:35.286Z,80.88
2022-09-26T04:09:12.061Z,80.78
2022-09-26T04:11:44.414Z,80.82
2022-09-26T04:14:13.619Z,81.15
2022-09-26T04:16:41.793Z,80.56
2022-09-26T04:19:10.181Z,80.65
2022-09-26T04:21:41.863Z,80.56
2022-09-26T04:24:15.389Z,79.95
2022-09-26T04:26:47.801Z,79.97
2022-09-26T04:29:16.098Z,79.85
2022-09-26T04:31:44.898Z,79.91
2022-09-26T04:34:14.880Z,80.26
2022-09-26T04:36:43.410Z,80.13
2022-09-26T04:39:11.676Z,80.02
2022-09-26T04:41:40.206Z,79.77
2022-09-26T04:44:08.228Z,79.37
2022-09-26T04:47:07.999Z,79.78
2022-09-26T04:49:35.693Z,79.04
2022-09-26T04:52:03.610Z,79.45
2022-09-26T04:54:32.815Z,79.11
2022-09-26T04:57:20.017Z,79.10
2022-09-26T04:59:49.353Z,78.47
2022-09-26T05:02:18.091Z,78.19
2022-09-26T05:04:48.712Z,78.55
2022-09-26T05:07:20.366Z,79.32
2022-09-26T05:09:48.542Z,78.87
2022-09-26T05:12:18.101Z,78.47
2022-09-26T05:14:46.428Z,78.63
2022-09-26T05:17:14.345Z,78.53
2022-09-26T05:19:43.629Z,78.33
2022-09-26T05:22:12.916Z,78.78
2022-09-26T05:24:59.026Z,78.12
2022-09-26T05:27:27.208Z,78.83
2022-09-26T05:29:56.952Z,78.35
2022-09-26T05:32:24.651Z,78.59
2022-09-26T05:34:53.973Z,78.83
2022-09-26T05:37:22.006Z,78.87
2022-09-26T05:40:09.839Z,79.02
2022-09-26T05:42:38.516Z,78.99
2022-09-26T05:45:07.130Z,78.67
2022-09-26T05:47:40.156Z,78.24
2022-09-26T05:50:11.816Z,78.63
2022-09-26T05:52:40.314Z,78.37
2022-09-26T05:55:10.340Z,78.14
2022-09-26T05:57:39.238Z,78.45
2022-09-26T06:00:09.485Z,78.93
2022-09-26T06:02:38.610Z,78.85
2022-09-26T06:05:06.709Z,78.72
2022-09-26T06:07:34.974Z,78.62
2022-09-26T06:10:07.402Z,77.89
2022-09-26T06:12:35.757Z,78.25
2022-09-26T06:15:03.735Z,77.82
2022-09-26T06:17:31.996Z,78.02
2022-09-26T06:19:59.991Z,78.02
2022-09-26T06:22:27.951Z,77.31
2022-09-26T06:24:56.988Z,77.46
2022-09-26T06:27:43.140Z,77.13
2022-09-26T06:30:12.534Z,76.92
2022-09-26T06:32:40.517Z,76.82
2022-09-26T06:35:08.962Z,76.06
2022-09-26T06:37:38.994Z,76.19
2022-09-26T06:40:09.651Z,76.53
2022-09-26T06:42:51.971Z,75.99
2022-09-26T06:45:20.061Z,76.21
2022-09-26T06:47:48.193Z,76.07
2022-09-26T06:50:16.962Z,75.97
2022-09-26T06:52:45.011Z,76.18
2022-09-26T06:55:13.471Z,76.57
2022-09-26T06:57:44.492Z,76.39
2022-09-26T07:00:17.185Z,76.05
2022-09-26T07:02:56.027Z,75.84
2022-09-26T07:05:25.606Z,75.98
2022-09-26T07:07:55.687Z,75.44
2022-09-26T07:10:26.447Z,75.75
2022-09-26T07:13:03.832Z,75.42
2022-09-26T07:15:36.802Z,75.78
2022-09-26T07:18:06.884Z,74.98
2022-09-26T07:20:40.597Z,75.21
2022-09-26T07:23:11.623Z,74.97
2022-09-26T07:25:42.565Z,74.75
2022-09-26T07:28:11.397Z,74.52
2022-09-26T07:30:39.650Z,74.57
2022-09-26T07:33:07.922Z,74.43
2022-09-26T07:35:38.083Z,74.35
2022-09-26T07:38:07.859Z,74.80
2022-09-26T07:40:36.024Z,73.67
2022-09-26T07:43:19.235Z,73.72
2022-09-26T07:46:10.816Z,73.17
2022-09-26T07:48:57.225Z,72.92
2022-09-26T07:51:25.506Z,72.45
2022-09-26T07:53:53.687Z,71.56
2022-09-26T07:56:22.289Z,70.79
2022-09-26T07:58:50.998Z,70.84
2022-09-26T08:01:19.867Z,70.39
2022-09-26T08:03:51.124Z,69.61
2022-09-26T08:06:24.116Z,69.17
2022-09-26T08:11:42.887Z,69.24
2022-09-26T08:14:10.915Z,69.41
2022-09-26T08:16:42.093Z,69.50
2022-09-26T08:19:19.448Z,69.48
2022-09-26T08:21:47.372Z,69.49
2022-09-26T08:24:15.502Z,69.83
2022-09-26T08:26:44.761Z,69.28
2022-09-26T08:29:13.059Z,69.39
2022-09-26T08:31:41.040Z,69.39
2022-09-26T08:34:10.343Z,69.81
2022-09-26T08:36:38.295Z,70.08
2022-09-26T08:39:06.778Z,70.33
2022-09-26T08:42:05.096Z,70.80
2022-09-26T08:44:47.157Z,70.98
2022-09-26T08:48:00.507Z,71.13
2022-09-26T08:50:48.514Z,71.70
2022-09-26T08:53:35.261Z,72.35
2022-09-26T08:56:14.885Z,72.21
2022-09-26T08:58:52.993Z,72.63
2022-09-26T09:01:30.196Z,72.74
2022-09-26T09:04:20.196Z,72.84
2022-09-26T09:06:50.322Z,72.60
2022-09-26T09:09:19.017Z,72.08
2022-09-26T09:12:11.998Z,72.34
2022-09-26T09:15:24.622Z,72.08
2022-09-26T09:18:15.031Z,72.26
2022-09-26T09:20:57.527Z,72.46
2022-09-26T09:23:41.910Z,72.30
2022-09-26T09:29:49.432Z,72.84
2022-09-26T09:32:22.580Z,71.92
2022-09-26T09:35:22.035Z,72.49
2022-09-26T09:37:55.681Z,73.07
2022-09-26T09:40:49.312Z,72.51
2022-09-26T09:43:41.868Z,73.05
2022-09-26T09:46:29.759Z,72.74
2022-09-26T09:49:15.631Z,72.96
2022-09-26T09:52:05.924Z,72.53
2022-09-26T09:54:36.890Z,72.37
2022-09-26T09:57:41.028Z,72.52
2022-09-26T10:00:12.370Z,71.84
2022-09-26T10:02:49.635Z,72.11
2022-09-26T10:05:17.876Z,71.99
2022-09-26T10:07:47.694Z,71.70
2022-09-26T10:10:23.925Z,72.00
2022-09-26T10:12:54.204Z,71.53
2022-09-26T10:15:26.822Z,71.51
2022-09-26T10:18:24.132Z,71.96
2022-09-26T10:21:07.378Z,72.32
2022-09-26T10:23:44.259Z,72.49
2022-09-26T10:26:14.381Z,72.89
2022-09-26T10:28:58.482Z,72.95
2022-09-26T10:31:30.729Z,73.21
2022-09-26T10:34:06.543Z,73.82
2022-09-26T10:36:42.874Z,73.68
2022-09-26T10:39:40.745Z,73.65
2022-09-26T10:42:35.988Z,73.77
2022-09-26T10:45:19.057Z,73.94
2022-09-26T10:47:51.864Z,73.68
2022-09-26T10:50:28.786Z,73.80
2022-09-26T10:53:11.817Z,74.33
2022-09-26T10:55:59.634Z,74.48
2022-09-26T10:59:22.849Z,74.31
2022-09-26T11:02:22.383Z,74.16
2022-09-26T11:05:17.746Z,74.28
2022-09-26T11:07:51.153Z,74.57
2022-09-26T11:10:28.028Z,74.54
2022-09-26T11:13:18.904Z,74.33
2022-09-26T11:16:15.332Z,74.14
2022-09-26T11:18:46.976Z,74.15
2022-09-26T11:21:36.229Z,74.12
2022-09-26T11:24:24.929Z,74.49
2022-09-26T11:27:27.535Z,74.17
2022-09-26T11:30:12.472Z,73.62
2022-09-26T11:32:44.646Z,73.51
2022-09-26T11:35:22.709Z,74.07
2022-09-26T11:38:29.319Z,73.66
2022-09-26T11:41:36.985Z,73.53
2022-09-26T11:44:36.623Z,73.47
2022-09-26T11:47:23.314Z,73.92
2022-09-26T11:50:18.334Z,73.75
2022-09-26T11:53:29.163Z,73.81
2022-09-26T11:56:08.029Z,73.32
2022-09-26T11:58:46.173Z,73.73
2022-09-26T12:01:24.001Z,73.53
2022-09-26T12:04:12.757Z,73.31
2022-09-26T12:07:03.158Z,73.20
2022-09-26T12:10:05.908Z,73.13
2022-09-26T12:12:43.862Z,73.02
2022-09-26T12:15:32.627Z,73.03
2022-09-26T12:18:16.598Z,73.20
2022-09-26T12:21:10.906Z,73.19
2022-09-26T12:23:59.844Z,73.17
2022-09-26T12:27:00.960Z,73.34
2022-09-26T12:30:12.204Z,73.21
2022-09-26T12:32:57.282Z,73.18
2022-09-26T12:35:36.751Z,73.23
2022-09-26T12:38:29.626Z,73.46
2022-09-26T12:41:21.780Z,73.37
2022-09-26T12:44:29.031Z,73.36
2022-09-26T12:47:27.980Z,73.53
2022-09-26T12:50:08.467Z,73.57
2022-09-26T12:52:51.315Z,73.46
2022-09-26T12:55:33.930Z,73.51
2022-09-26T12:58:25.680Z,74.08
2022-09-26T13:01:12.525Z,73.62
2022-09-26T13:04:23.506Z,73.86
2022-09-26T13:07:20.494Z,73.60
2022-09-26T13:10:17.738Z,73.70
2022-09-26T13:13:07.976Z,73.53
2022-09-26T13:15:54.719Z,73.97
2022-09-26T13:18:34.635Z,73.70
2022-09-26T13:21:10.055Z,73.33
2022-09-26T13:23:58.557Z,73.56
2022-09-26T13:26:36.423Z,73.38
2022-09-26T13:29:17.709Z,73.15
2022-09-26T13:31:50.687Z,73.51
2022-09-26T13:34:29.021Z,73.45
2022-09-26T13:37:00.253Z,73.41
2022-09-26T13:39:44.148Z,73.30
2022-09-26T13:42:49.446Z,73.43
2022-09-26T13:45:30.069Z,73.39
2022-09-26T13:48:09.241Z,73.32
2022-09-26T13:50:56.208Z,73.56
2022-09-26T13:53:58.385Z,73.32
2022-09-26T13:56:36.668Z,73.20
2022-09-26T13:59:27.956Z,73.19
2022-09-26T14:02:30.820Z,73.46
2022-09-26T14:05:04.781Z,73.31
2022-09-26T14:08:01.545Z,73.35
2022-09-26T14:10:39.862Z,73.35
2022-09-26T14:13:22.728Z,73.19
2022-09-26T14:15:58.228Z,73.32
2022-09-26T14:18:56.426Z,73.16
2022-09-26T14:21:37.974Z,73.48
2022-09-26T14:24:21.202Z,72.95
2022-09-26T14:27:13.254Z,73.46
2022-09-26T14:29:43.217Z,73.16
2022-09-26T14:32:33.131Z,73.32
2022-09-26T14:35:05.420Z,72.95
2022-09-26T14:37:35.210Z,73.20
2022-09-26T14:40:08.961Z,73.25
2022-09-26T14:42:45.825Z,72.98
2022-09-26T14:45:22.324Z,72.74
2022-09-26T14:48:07.137Z,73.06
2022-09-26T14:50:45.013Z,72.73
2022-09-26T14:53:38.755Z,72.60
2022-09-26T14:56:13.137Z,72.74
2022-09-26T14:58:41.038Z,72.73
2022-09-26T15:01:34.917Z,72.69
2022-09-26T15:04:17.085Z,72.24
2022-09-26T15:06:50.362Z,72.59
2022-09-26T15:09:26.848Z,72.55
2022-09-26T15:12:12.089Z,72.33
2022-09-26T15:14:48.767Z,72.15
2022-09-26T15:17:27.014Z,71.92
2022-09-26T15:20:00.207Z,72.69
2022-09-26T15:22:31.882Z,72.18
2022-09-26T15:25:32.758Z,72.49
2022-09-26T15:28:02.552Z,72.28
2022-09-26T15:30:34.225Z,72.64
2022-09-26T15:33:06.753Z,72.11
2022-09-26T15:35:34.805Z,72.25
2022-09-26T15:38:10.156Z,72.36
2022-09-26T15:40:38.263Z,72.75
2022-09-26T15:43:25.797Z,72.57
2022-09-26T15:45:59.290Z,72.69
2022-09-26T15:48:33.104Z,72.79
2022-09-26T15:51:24.338Z,72.62
2022-09-26T15:54:00.358Z,72.42
2022-09-26T15:56:28.302Z,72.57
2022-09-26T15:59:09.287Z,72.65
2022-09-26T16:01:43.199Z,72.45
2022-09-26T16:04:30.491Z,72.21
2022-09-26T16:07:21.417Z,71.88
2022-09-26T16:09:52.973Z,72.19
2022-09-26T16:12:25.938Z,71.85
2022-09-26T16:15:09.657Z,71.49
2022-09-26T16:17:38.088Z,71.45
2022-09-26T16:20:32.601Z,71.37
2022-09-26T16:25:51.846Z,71.26
2022-09-26T16:28:40.805Z,71.19
2022-09-26T16:31:14.122Z,70.93
2022-09-26T16:33:43.225Z,71.36
2022-09-26T16:36:20.252Z,70.94
2022-09-26T16:38:57.303Z,70.38
2022-09-26T16:42:00.105Z,70.17
2022-09-26T16:44:35.396Z,70.80
2022-09-26T16:47:07.950Z,70.49
2022-09-26T16:49:48.573Z,70.31
2022-09-26T16:52:37.415Z,70.57
2022-09-26T16:55:07.501Z,70.58
2022-09-26T16:57:48.971Z,69.86
2022-09-26T17:00:41.434Z,70.16
2022-09-26T17:03:27.557Z,69.61
2022-09-26T17:05:57.878Z,70.29
2022-09-26T17:08:28.028Z,70.04
2022-09-26T17:11:03.127Z,70.24
2022-09-26T17:13:36.693Z,70.15
2022-09-26T17:16:05.104Z,70.08
2022-09-26T17:18:34.430Z,69.63
2022-09-26T17:21:06.530Z,70.08
2022-09-26T17:23:41.471Z,69.61
2022-09-26T17:26:20.781Z,69.75
2022-09-26T17:28:49.972Z,70.09
2022-09-26T17:31:22.692Z,70.54
2022-09-26T17:33:55.039Z,70.34
2022-09-26T17:36:28.604Z,70.03
2022-09-26T17:39:00.034Z,70.44
2022-09-26T17:41:30.572Z,69.94
2022-09-26T17:44:01.549Z,70.88
2022-09-26T17:46:30.198Z,70.79
2022-09-26T17:49:00.972Z,70.72
2022-09-26T17:51:29.851Z,70.53
2022-09-26T17:53:58.056Z,70.97
2022-09-26T17:56:27.157Z,70.45
2022-09-26T17:58:56.165Z,70.77
2022-09-26T18:01:35.947Z,70.69
2022-09-26T18:04:13.370Z,70.75
2022-09-26T18:06:43.677Z,70.95
2022-09-26T18:09:18.866Z,70.93
2022-09-26T18:11:57.946Z,71.07
2022-09-26T18:14:27.845Z,71.40
2022-09-26T18:16:55.868Z,71.33
2022-09-26T18:19:23.892Z,71.54
2022-09-26T18:21:57.637Z,71.43
2022-09-26T18:24:28.678Z,71.70
2022-09-26T18:27:04.047Z,71.77
2022-09-26T18:29:36.617Z,71.53
2022-09-26T18:32:12.753Z,71.67
2022-09-26T18:34:42.061Z,72.32
2022-09-26T18:37:10.116Z,72.10
2022-09-26T18:39:38.076Z,72.28
2022-09-26T18:42:13.646Z,71.89
2022-09-26T18:44:43.339Z,72.45
2022-09-26T18:47:16.680Z,72.00
2022-09-26T18:49:48.068Z,71.88
2022-09-26T18:52:18.426Z,72.12
2022-09-26T18:54:47.017Z,72.46
2022-09-26T18:57:33.484Z,72.07
2022-09-26T19:00:03.756Z,72.62
2022-09-26T19:02:38.968Z,72.42
2022-09-26T19:05:11.146Z,72.78
2022-09-26T19:07:40.993Z,72.84
2022-09-26T19:10:19.129Z,72.31
2022-09-26T19:12:47.503Z,72.87
2022-09-26T19:15:18.171Z,72.73
2022-09-26T19:17:46.222Z,72.50
2022-09-26T19:20:14.500Z,72.68
2022-09-26T19:22:42.676Z,73.02
2022-09-26T19:25:11.235Z,72.66
2022-09-26T19:27:57.894Z,73.03
2022-09-26T19:30:27.698Z,73.10
2022-09-26T19:32:57.725Z,73.10
2022-09-26T19:35:32.331Z,73.06
2022-09-26T19:38:01.717Z,73.52
2022-09-26T19:40:30.270Z,73.37
2022-09-26T19:42:58.656Z,73.23
2022-09-26T19:45:32.215Z,73.18
2022-09-26T19:48:00.603Z,73.58
2022-09-26T19:50:30.616Z,73.42
2022-09-26T19:53:05.331Z,73.40
2022-09-26T19:55:33.437Z,73.39
2022-09-26T19:58:25.243Z,73.11
2022-09-26T20:00:55.829Z,73.71
2022-09-26T20:03:30.370Z,73.22
2022-09-26T20:05:58.694Z,73.57
2022-09-26T20:08:28.006Z,73.11
2022-09-26T20:10:57.226Z,73.40
2022-09-26T20:13:26.986Z,73.01
2022-09-26T20:15:56.625Z,73.66
2022-09-26T20:18:25.439Z,73.19
2022-09-26T20:20:56.671Z,73.71
2022-09-26T20:23:28.232Z,73.30
2022-09-26T20:25:56.669Z,73.43
2022-09-26T20:28:25.747Z,73.51
2022-09-26T20:30:56.164Z,73.66
2022-09-26T20:33:26.872Z,73.56
2022-09-26T20:36:03.331Z,73.62
2022-09-26T20:38:39.154Z,73.30
2022-09-26T20:41:31.952Z,73.40
2022-09-26T20:44:05.607Z,73.29
2022-09-26T20:46:38.930Z,73.62
2022-09-26T20:49:13.754Z,73.37
2022-09-26T20:51:41.839Z,73.32
2022-09-26T20:54:27.369Z,73.41
2022-09-26T20:56:59.393Z,73.79
2022-09-26T20:59:28.428Z,73.69
2022-09-26T21:01:58.198Z,73.95
2022-09-26T21:04:32.726Z,73.53
2022-09-26T21:07:00.745Z,73.41
2022-09-26T21:09:29.769Z,73.88
2022-09-26T21:11:57.689Z,73.47
2022-09-26T21:14:26.690Z,73.91
2022-09-26T21:16:56.454Z,73.76
2022-09-26T21:19:25.849Z,73.43
2022-09-26T21:21:53.859Z,73.35
2022-09-26T21:24:32.745Z,73.71
2022-09-26T21:27:00.710Z,73.91
2022-09-26T21:29:28.760Z,73.54
2022-09-26T21:32:04.449Z,74.02
2022-09-26T21:34:34.428Z,73.75
2022-09-26T21:37:04.456Z,73.83
2022-09-26T21:39:33.946Z,73.53
2022-09-26T21:42:05.269Z,73.64
2022-09-26T21:44:47.981Z,73.53
2022-09-26T21:47:16.156Z,74.05
2022-09-26T21:49:44.392Z,73.53
2022-09-26T21:52:19.866Z,73.70
2022-09-26T21:54:48.254Z,73.35
2022-09-26T21:57:29.978Z,73.58
2022-09-26T21:59:59.525Z,73.34
2022-09-26T22:02:28.363Z,73.52
2022-09-26T22:04:56.512Z,73.49
2022-09-26T22:07:24.426Z,73.39
2022-09-26T22:09:52.381Z,73.18
2022-09-26T22:12:21.585Z,73.77
2022-09-26T22:14:49.732Z,73.34
2022-09-26T22:17:19.254Z,73.70
2022-09-26T22:19:48.474Z,73.30
2022-09-26T22:22:18.049Z,73.33
2022-09-26T22:24:46.429Z,73.06
2022-09-26T22:27:16.919Z,73.50
2022-09-26T22:29:45.093Z,73.08
2022-09-26T22:32:13.963Z,73.44
2022-09-26T22:34:42.111Z,73.51
2022-09-26T22:37:10.233Z,73.32
2022-09-26T22:39:38.228Z,73.48
2022-09-26T22:42:07.620Z,73.40
2022-09-26T22:44:36.665Z,73.61
2022-09-26T22:47:04.942Z,73.64
2022-09-26T22:49:34.171Z,73.26
2022-09-26T22:52:02.219Z,73.72
2022-09-26T22:54:30.089Z,73.21
2022-09-26T22:56:59.079Z,73.41
2022-09-26T22:59:27.105Z,73.63
2022-09-26T23:01:57.931Z,73.58
2022-09-26T23:04:47.411Z,73.70
2022-09-26T23:07:16.624Z,73.16
2022-09-26T23:09:45.126Z,73.29
2022-09-26T23:12:15.818Z,73.72
2022-09-26T23:14:43.801Z,73.13
2022-09-26T23:17:11.955Z,73.48
2022-09-26T23:19:41.100Z,73.39
2022-09-26T23:22:09.120Z,73.55
2022-09-26T23:24:37.033Z,73.70
2022-09-26T23:27:06.718Z,73.14
2022-09-26T23:29:53.016Z,72.96
2022-09-26T23:32:21.272Z,73.37
2022-09-26T23:34:49.296Z,72.73
2022-09-26T23:37:17.246Z,73.63
2022-09-26T23:39:47.687Z,73.45
2022-09-26T23:42:15.755Z,73.25
2022-09-26T23:44:43.717Z,73.07
2022-09-26T23:47:11.849Z,72.84
2022-09-26T23:49:39.870Z,73.26
2022-09-26T23:52:07.791Z,72.71
2022-09-26T23:54:35.842Z,73.43
2022-09-26T23:57:03.813Z,72.88
2022-09-26T23:59:31.935Z,72.93
